Boris Syromyatnikov — UCUF — position and weather

sailwx.info

Track history (hours):
 
Tides and Currents Weather Stations Pressure Air Temp Water Temp Dewpoint Dewpoint Depression Visibility Wind Speed Wind Dir Waves Ship Positions

Boris Syromyatnikov

Last reported at 2015-Jun-20 03:32 UTC. Time now 2015-Jul-03 17:18 UTC.
Position N 57°39' E 008°48'.
Warning: this ship's position is 13 days out of date.

Length 120 m; beam 19 m.

Type: Fishing. MMSI: 273529800.

Date/timePositionNaut miles runAvg speedWind from/ knotsBaromVisibWave heightAir tempDewpointWater temp
2015-Jun-20 03:32N 57°39' E 008°48'1212.7
2015-Jun-20 02:33N 57°43' E 009°10'1412.9
2015-Jun-20 01:26N 57°48' E 009°36'1213.4
2015-Jun-20 00:32N 57°49' E 009°58'1313.5
2015-Jun-19 23:33N 57°50' E 010°23'1110.9
2015-Jun-19 22:33N 57°50' E 010°43'9 9.5
2015-Jun-19 21:33N 57°40' E 010°43'4 3.4
2015-Jun-19 20:30N 57°41' E 010°37'0 0.0
2015-Jun-19 19:21N 57°41' E 010°37'0 0.0
2015-Jun-19 18:24N 57°41' E 010°37'0 0.0
2015-Jun-19 17:30N 57°41' E 010°37'0 0.0
2015-Jun-19 16:27N 57°41' E 010°37'0 0.0
2015-Jun-19 15:33N 57°41' E 010°37'0 0.0
2015-Jun-19 14:30N 57°41' E 010°37'0 0.0
2015-Jun-19 13:27N 57°41' E 010°37'0 0.0
2015-Jun-19 12:33N 57°41' E 010°37'0 0.0
2015-Jun-19 11:10N 57°41' E 010°37'0 0.0
2015-Jun-19 10:29N 57°41' E 010°37'0 0.0
2015-Jun-19 08:32N 57°41' E 010°37'0 0.0
2015-Jun-19 07:04N 57°41' E 010°37'0 0.0
2015-Jun-19 06:25N 57°41' E 010°37'0 0.0
2015-Jun-19 05:16N 57°41' E 010°37'2 2.0
2015-Jun-19 04:15N 57°40' E 010°39'6 8.4
2015-Jun-19 03:31N 57°38' E 010°50'1111.2
2015-Jun-19 02:33N 57°33' E 011°08'1211.7
2015-Jun-19 01:33N 57°27' E 011°26'1111.5
2015-Jun-19 00:33N 57°16' E 011°33'1312.3
2015-Jun-18 23:31N 57°04' E 011°41'1211.9
2015-Jun-18 22:33N 56°53' E 011°49'1212.1
2015-Jun-18 21:33N 56°42' E 011°55'1212.1
2015-Jun-18 20:33N 56°30' E 012°00'1212.4
2015-Jun-18 19:33N 56°18' E 012°06'1212.4
2015-Jun-18 18:33N 56°11' E 012°24'1211.9
2015-Jun-18 17:33N 56°03' E 012°40'1211.8
2015-Jun-18 16:33N 55°51' E 012°44'7 7.2
2015-Jun-18 15:33N 55°44' E 012°40'0 0.0
2015-Jun-18 14:33N 55°44' E 012°40'7 7.5
2015-Jun-18 13:33N 55°37' E 012°42'1211.9
2015-Jun-18 12:33N 55°25' E 012°42'1110.6
2015-Jun-18 11:34N 55°16' E 012°52'1413.6
2015-Jun-18 10:33N 55°15' E 013°16'3114.0
2015-Jun-18 08:23N 55°14' E 014°10'1212.8
2015-Jun-18 07:27N 55°21' E 014°27'1313.9
2015-Jun-18 06:29N 55°29' E 014°45'1413.1
2015-Jun-18 05:26N 55°27' E 015°09'10713.6
2015-Jun-17 21:33N 55°04' E 018°12'1414.1
2015-Jun-17 20:33N 54°60' E 018°35'1414.0
2015-Jun-17 19:33N 54°50' E 018°52'1312.9
2015-Jun-17 18:33N 54°37' E 018°55'1413.7
2015-Jun-17 17:34N 54°27' E 018°40'5 4.5
2015-Jun-17 16:33N 54°22' E 018°40'0 0.3
2015-Jun-17 15:33N 54°22' E 018°40'0 0.0
2015-Jun-17 14:33N 54°22' E 018°40'0 0.0
2015-Jun-17 13:33N 54°22' E 018°40'0 0.0
2015-Jun-17 12:33N 54°22' E 018°40'0 0.0
2015-Jun-17 11:33N 54°22' E 018°40'0 0.0
2015-Jun-17 10:33N 54°22' E 018°40'0 0.0
2015-Jun-17 09:33N 54°22' E 018°40'0 0.0
2015-Jun-17 08:33N 54°22' E 018°40'0 0.0
2015-Jun-17 07:33N 54°22' E 018°40'0 0.0
2015-Jun-17 06:33N 54°22' E 018°40'0 0.0
2015-Jun-17 05:33N 54°22' E 018°40'0 0.0
2015-Jun-17 04:33N 54°22' E 018°40'0 0.0
2015-Jun-17 03:33N 54°22' E 018°40'0 0.0
2015-Jun-17 02:33N 54°22' E 018°40'0 0.0
2015-Jun-17 01:30N 54°22' E 018°40'0 0.0
2015-Jun-17 00:33N 54°22' E 018°40'0 0.0
2015-Jun-16 23:33N 54°22' E 018°40'0 0.0
2015-Jun-16 22:33N 54°22' E 018°40'0 0.0
2015-Jun-16 21:33N 54°22' E 018°40'0 0.0
2015-Jun-16 20:33N 54°22' E 018°40'0 0.0
2015-Jun-16 19:33N 54°22' E 018°40'0 0.0
2015-Jun-16 18:33N 54°22' E 018°40'0 0.0
2015-Jun-16 17:33N 54°22' E 018°40'0 0.0
2015-Jun-16 16:33N 54°22' E 018°40'0 0.0
2015-Jun-16 15:33N 54°22' E 018°40'0 0.0
2015-Jun-16 14:33N 54°22' E 018°40'0 0.0
2015-Jun-16 13:30N 54°22' E 018°40'0 0.0
2015-Jun-16 12:33N 54°22' E 018°40'0 0.0
2015-Jun-16 11:33N 54°22' E 018°40'0 0.0
2015-Jun-16 10:33N 54°22' E 018°40'0 0.0
2015-Jun-16 09:33N 54°22' E 018°40'0 0.0
2015-Jun-16 08:33N 54°22' E 018°40'0 0.0
2015-Jun-16 07:33N 54°22' E 018°40'0 0.0
2015-Jun-16 06:33N 54°22' E 018°40'0 0.0
2015-Jun-16 05:33N 54°22' E 018°40'0 0.0
2015-Jun-16 04:33N 54°22' E 018°40'0 0.0
2015-Jun-16 03:24N 54°22' E 018°40'0 0.0
2015-Jun-16 02:32N 54°22' E 018°40'0 0.0
2015-Jun-16 01:32N 54°22' E 018°40'0 0.0
2015-Jun-16 00:32N 54°22' E 018°40'0 0.0
2015-Jun-15 23:33N 54°22' E 018°40'0 0.0
2015-Jun-15 22:33N 54°22' E 018°40'0 0.0
2015-Jun-15 21:32N 54°22' E 018°40'0 0.0
2015-Jun-15 20:32N 54°22' E 018°40'0 0.0
2015-Jun-15 19:32N 54°22' E 018°40'0 0.0
2015-Jun-15 18:32N 54°22' E 018°40'0 0.0
2015-Jun-15 17:32N 54°22' E 018°40'0 0.0
2015-Jun-15 16:32N 54°22' E 018°40'0 0.0
2015-Jun-15 15:32N 54°22' E 018°40'0 0.0
2015-Jun-15 14:32N 54°22' E 018°40'0 0.0
2015-Jun-15 13:32N 54°22' E 018°40'0 0.0
2015-Jun-15 12:32N 54°22' E 018°40'0 0.0
2015-Jun-15 11:32N 54°22' E 018°40'0 0.0
2015-Jun-15 10:32N 54°22' E 018°40'0 0.0
2015-Jun-15 09:32N 54°22' E 018°40'0 0.0
2015-Jun-15 08:32N 54°22' E 018°40'0 0.0
2015-Jun-15 07:29N 54°22' E 018°40'0 0.0
2015-Jun-15 06:29N 54°22' E 018°40'0 0.0
2015-Jun-15 05:32N 54°22' E 018°40'0 0.0
2015-Jun-15 04:32N 54°22' E 018°40'0 0.0
2015-Jun-15 03:32N 54°22' E 018°40'0 0.0
2015-Jun-15 02:32N 54°22' E 018°40'0 0.0
2015-Jun-15 01:32N 54°22' E 018°40'0 0.0
2015-Jun-15 00:32N 54°22' E 018°40'0 0.0
2015-Jun-14 23:32N 54°22' E 018°40'0 0.0
2015-Jun-14 22:29N 54°22' E 018°40'0 0.0
2015-Jun-14 21:32N 54°22' E 018°40'0 0.0
2015-Jun-14 20:32N 54°22' E 018°40'0 0.0
2015-Jun-14 19:32N 54°22' E 018°40'0 0.0
2015-Jun-14 18:32N 54°22' E 018°40'0 0.0
2015-Jun-14 17:32N 54°22' E 018°40'0 0.0
2015-Jun-14 16:32N 54°22' E 018°40'0 0.0
2015-Jun-14 15:32N 54°22' E 018°40'0 0.0
2015-Jun-14 14:32N 54°22' E 018°40'0 0.0
2015-Jun-14 13:32N 54°22' E 018°40'0 0.0
2015-Jun-14 12:32N 54°22' E 018°40'0 0.0
2015-Jun-14 11:32N 54°22' E 018°40'0 0.0
2015-Jun-14 10:32N 54°22' E 018°40'0 0.0
2015-Jun-14 09:32N 54°22' E 018°40'0 0.0
2015-Jun-14 08:26N 54°22' E 018°40'0 0.0
2015-Jun-14 07:26N 54°22' E 018°40'0 0.0
2015-Jun-14 06:32N 54°22' E 018°40'0 0.0
2015-Jun-14 05:32N 54°22' E 018°40'0 0.0
2015-Jun-14 04:31N 54°22' E 018°40'0 0.0
2015-Jun-14 03:32N 54°22' E 018°40'0 0.0
2015-Jun-14 02:25N 54°22' E 018°40'0 0.0
2015-Jun-14 01:31N 54°22' E 018°40'0 0.0
2015-Jun-14 00:28N 54°22' E 018°40'0 0.0
2015-Jun-13 23:31N 54°22' E 018°40'0 0.0
2015-Jun-13 22:31N 54°22' E 018°40'0 0.0
2015-Jun-13 21:25N 54°22' E 018°40'0 0.0
2015-Jun-13 20:31N 54°22' E 018°40'0 0.0
2015-Jun-13 19:31N 54°22' E 018°40'0 0.0
2015-Jun-13 18:31N 54°22' E 018°40'0 0.0
2015-Jun-13 17:31N 54°22' E 018°40'0 0.0
2015-Jun-13 16:22N 54°22' E 018°40'0 0.0
2015-Jun-13 15:31N 54°22' E 018°40'0 0.0
2015-Jun-13 14:31N 54°22' E 018°40'0 0.0
2015-Jun-13 13:31N 54°22' E 018°40'0 0.0
2015-Jun-13 12:31N 54°22' E 018°40'0 0.0
2015-Jun-13 11:28N 54°22' E 018°40'0 0.0
2015-Jun-13 10:31N 54°22' E 018°40'0 0.0
2015-Jun-13 09:31N 54°22' E 018°40'0 0.0
2015-Jun-13 08:31N 54°22' E 018°40'0 0.0
2015-Jun-13 07:31N 54°22' E 018°40'0 0.0
2015-Jun-13 06:31N 54°22' E 018°40'0 0.0
2015-Jun-13 05:31N 54°22' E 018°40'0 0.0
2015-Jun-13 04:25N 54°22' E 018°40'0 0.0
2015-Jun-13 03:31N 54°22' E 018°40'0 0.0
2015-Jun-13 02:31N 54°22' E 018°40'0 0.0
2015-Jun-13 01:31N 54°22' E 018°40'0 0.0
2015-Jun-13 00:31N 54°22' E 018°40'0 0.0
2015-Jun-12 23:31N 54°22' E 018°40'0 0.0
2015-Jun-12 22:31N 54°22' E 018°40'0 0.0
2015-Jun-12 21:28N 54°22' E 018°40'0 0.0
2015-Jun-12 20:31N 54°22' E 018°40'0 0.0
2015-Jun-12 19:31N 54°22' E 018°40'0 0.0
2015-Jun-12 18:31N 54°22' E 018°40'0 0.0
2015-Jun-12 17:31N 54°22' E 018°40'0 0.0
2015-Jun-12 16:31N 54°22' E 018°40'0 0.0
2015-Jun-12 15:34N 54°22' E 018°40'0 0.0
2015-Jun-12 14:34N 54°22' E 018°40'0 0.0
2015-Jun-12 13:33N 54°22' E 018°40'0 0.0
2015-Jun-12 12:33N 54°22' E 018°40'0 0.0
2015-Jun-12 11:33N 54°22' E 018°40'0 0.0
2015-Jun-12 10:33N 54°22' E 018°40'0 0.0
2015-Jun-12 09:33N 54°22' E 018°40'0 0.0
2015-Jun-12 08:33N 54°22' E 018°40'0 0.0
2015-Jun-12 07:33N 54°22' E 018°40'0 0.0
2015-Jun-12 06:33N 54°22' E 018°40'0 0.0
2015-Jun-12 05:30N 54°22' E 018°40'0 0.0
2015-Jun-12 04:33N 54°22' E 018°40'0 0.0
2015-Jun-12 03:33N 54°22' E 018°40'0 0.0
2015-Jun-12 02:33N 54°22' E 018°40'0 0.0
2015-Jun-12 01:33N 54°22' E 018°40'0 0.0
2015-Jun-12 00:33N 54°22' E 018°40'0 0.0
2015-Jun-11 23:33N 54°22' E 018°40'0 0.0
2015-Jun-11 22:33N 54°22' E 018°40'0 0.0
2015-Jun-11 21:33N 54°22' E 018°40'0 0.0
2015-Jun-11 20:33N 54°22' E 018°40'0 0.0
2015-Jun-11 19:33N 54°22' E 018°40'0 0.0
2015-Jun-11 18:33N 54°22' E 018°40'0 0.0
2015-Jun-11 17:33N 54°22' E 018°40'0 0.0
2015-Jun-11 16:33N 54°22' E 018°40'0 0.0
2015-Jun-11 15:30N 54°22' E 018°40'0 0.0
2015-Jun-11 14:33N 54°22' E 018°40'0 0.0
2015-Jun-11 13:33N 54°22' E 018°40'0 0.0
2015-Jun-11 12:33N 54°22' E 018°40'0 0.0
2015-Jun-11 11:33N 54°22' E 018°40'0 0.0
2015-Jun-11 10:33N 54°22' E 018°40'0 0.0
2015-Jun-11 09:33N 54°22' E 018°40'0 0.0
2015-Jun-11 08:33N 54°22' E 018°40'0 0.0
2015-Jun-11 07:33N 54°22' E 018°40'0 0.0
2015-Jun-11 06:33N 54°22' E 018°40'0 0.0
2015-Jun-11 05:30N 54°22' E 018°40'0 0.0
2015-Jun-11 04:33N 54°22' E 018°40'0 0.0
2015-Jun-11 03:33N 54°22' E 018°40'0 0.0
2015-Jun-11 02:33N 54°22' E 018°40'0 0.0
2015-Jun-11 01:33N 54°22' E 018°40'0 0.0
2015-Jun-11 00:33N 54°22' E 018°40'0 0.0
2015-Jun-10 23:33N 54°22' E 018°40'0 0.0
2015-Jun-10 22:33N 54°22' E 018°40'0 0.0
2015-Jun-10 21:33N 54°22' E 018°40'0 0.0
2015-Jun-10 20:33N 54°22' E 018°40'0 0.0
2015-Jun-10 19:33N 54°22' E 018°40'0 0.0
2015-Jun-10 18:33N 54°22' E 018°40'0 0.0
2015-Jun-10 17:32N 54°22' E 018°40'0 0.0
2015-Jun-10 16:32N 54°22' E 018°40'0 0.0
2015-Jun-10 15:32N 54°22' E 018°40'0 0.0
2015-Jun-10 14:32N 54°22' E 018°40'0 0.0
2015-Jun-10 13:26N 54°22' E 018°40'0 0.0
2015-Jun-10 12:32N 54°22' E 018°40'0 0.0
2015-Jun-10 11:32N 54°22' E 018°40'0 0.0
2015-Jun-10 10:32N 54°22' E 018°40'0 0.0
2015-Jun-10 09:32N 54°22' E 018°40'0 0.0
2015-Jun-10 08:32N 54°22' E 018°40'0 0.0
2015-Jun-10 07:32N 54°22' E 018°40'0 0.0
2015-Jun-10 06:32N 54°22' E 018°40'0 0.0
2015-Jun-10 05:32N 54°22' E 018°40'0 0.0
2015-Jun-10 04:32N 54°22' E 018°40'  
Track history (hours):
 
Tides and Currents Weather Stations Pressure Air Temp Water Temp Dewpoint Dewpoint Depression Visibility Wind Speed Wind Dir Waves Ship Positions

Boris Syromyatnikov

Last reported at 2015-Jun-20 03:32 UTC. Time now 2015-Jul-03 17:18 UTC.
Position N 57°39' E 008°48'.
Warning: this ship's position is 13 days out of date.

Length 120 m; beam 19 m.

Type: Fishing. MMSI: 273529800.

Date/timePositionNaut miles runAvg speedWind from/ knotsBaromVisibWave heightAir tempDewpointWater temp
2015-Jun-20 03:32N 57°39' E 008°48'1212.7
2015-Jun-20 02:33N 57°43' E 009°10'1412.9
2015-Jun-20 01:26N 57°48' E 009°36'1213.4
2015-Jun-20 00:32N 57°49' E 009°58'1313.5
2015-Jun-19 23:33N 57°50' E 010°23'1110.9
2015-Jun-19 22:33N 57°50' E 010°43'9 9.5
2015-Jun-19 21:33N 57°40' E 010°43'4 3.4
2015-Jun-19 20:30N 57°41' E 010°37'0 0.0
2015-Jun-19 19:21N 57°41' E 010°37'0 0.0
2015-Jun-19 18:24N 57°41' E 010°37'0 0.0
2015-Jun-19 17:30N 57°41' E 010°37'0 0.0
2015-Jun-19 16:27N 57°41' E 010°37'0 0.0
2015-Jun-19 15:33N 57°41' E 010°37'0 0.0
2015-Jun-19 14:30N 57°41' E 010°37'0 0.0
2015-Jun-19 13:27N 57°41' E 010°37'0 0.0
2015-Jun-19 12:33N 57°41' E 010°37'0 0.0
2015-Jun-19 11:10N 57°41' E 010°37'0 0.0
2015-Jun-19 10:29N 57°41' E 010°37'0 0.0
2015-Jun-19 08:32N 57°41' E 010°37'0 0.0
2015-Jun-19 07:04N 57°41' E 010°37'0 0.0
2015-Jun-19 06:25N 57°41' E 010°37'0 0.0
2015-Jun-19 05:16N 57°41' E 010°37'2 2.0
2015-Jun-19 04:15N 57°40' E 010°39'6 8.4
2015-Jun-19 03:31N 57°38' E 010°50'1111.2
2015-Jun-19 02:33N 57°33' E 011°08'1211.7
2015-Jun-19 01:33N 57°27' E 011°26'1111.5
2015-Jun-19 00:33N 57°16' E 011°33'1312.3
2015-Jun-18 23:31N 57°04' E 011°41'1211.9
2015-Jun-18 22:33N 56°53' E 011°49'1212.1
2015-Jun-18 21:33N 56°42' E 011°55'1212.1
2015-Jun-18 20:33N 56°30' E 012°00'1212.4
2015-Jun-18 19:33N 56°18' E 012°06'1212.4
2015-Jun-18 18:33N 56°11' E 012°24'1211.9
2015-Jun-18 17:33N 56°03' E 012°40'1211.8
2015-Jun-18 16:33N 55°51' E 012°44'7 7.2
2015-Jun-18 15:33N 55°44' E 012°40'0 0.0
2015-Jun-18 14:33N 55°44' E 012°40'7 7.5
2015-Jun-18 13:33N 55°37' E 012°42'1211.9
2015-Jun-18 12:33N 55°25' E 012°42'1110.6
2015-Jun-18 11:34N 55°16' E 012°52'1413.6
2015-Jun-18 10:33N 55°15' E 013°16'3114.0
2015-Jun-18 08:23N 55°14' E 014°10'1212.8
2015-Jun-18 07:27N 55°21' E 014°27'1313.9
2015-Jun-18 06:29N 55°29' E 014°45'1413.1
2015-Jun-18 05:26N 55°27' E 015°09'10713.6
2015-Jun-17 21:33N 55°04' E 018°12'1414.1
2015-Jun-17 20:33N 54°60' E 018°35'1414.0
2015-Jun-17 19:33N 54°50' E 018°52'1312.9
2015-Jun-17 18:33N 54°37' E 018°55'1413.7
2015-Jun-17 17:34N 54°27' E 018°40'5 4.5
2015-Jun-17 16:33N 54°22' E 018°40'0 0.3
2015-Jun-17 15:33N 54°22' E 018°40'0 0.0
2015-Jun-17 14:33N 54°22' E 018°40'0 0.0
2015-Jun-17 13:33N 54°22' E 018°40'0 0.0
2015-Jun-17 12:33N 54°22' E 018°40'0 0.0
2015-Jun-17 11:33N 54°22' E 018°40'0 0.0
2015-Jun-17 10:33N 54°22' E 018°40'0 0.0
2015-Jun-17 09:33N 54°22' E 018°40'0 0.0
2015-Jun-17 08:33N 54°22' E 018°40'0 0.0
2015-Jun-17 07:33N 54°22' E 018°40'0 0.0
2015-Jun-17 06:33N 54°22' E 018°40'0 0.0
2015-Jun-17 05:33N 54°22' E 018°40'0 0.0
2015-Jun-17 04:33N 54°22' E 018°40'0 0.0
2015-Jun-17 03:33N 54°22' E 018°40'0 0.0
2015-Jun-17 02:33N 54°22' E 018°40'0 0.0
2015-Jun-17 01:30N 54°22' E 018°40'0 0.0
2015-Jun-17 00:33N 54°22' E 018°40'0 0.0
2015-Jun-16 23:33N 54°22' E 018°40'0 0.0
2015-Jun-16 22:33N 54°22' E 018°40'0 0.0
2015-Jun-16 21:33N 54°22' E 018°40'0 0.0
2015-Jun-16 20:33N 54°22' E 018°40'0 0.0
2015-Jun-16 19:33N 54°22' E 018°40'0 0.0
2015-Jun-16 18:33N 54°22' E 018°40'0 0.0
2015-Jun-16 17:33N 54°22' E 018°40'0 0.0
2015-Jun-16 16:33N 54°22' E 018°40'0 0.0
2015-Jun-16 15:33N 54°22' E 018°40'0 0.0
2015-Jun-16 14:33N 54°22' E 018°40'0 0.0
2015-Jun-16 13:30N 54°22' E 018°40'0 0.0
2015-Jun-16 12:33N 54°22' E 018°40'0 0.0
2015-Jun-16 11:33N 54°22' E 018°40'0 0.0
2015-Jun-16 10:33N 54°22' E 018°40'0 0.0
2015-Jun-16 09:33N 54°22' E 018°40'0 0.0
2015-Jun-16 08:33N 54°22' E 018°40'0 0.0
2015-Jun-16 07:33N 54°22' E 018°40'0 0.0
2015-Jun-16 06:33N 54°22' E 018°40'0 0.0
2015-Jun-16 05:33N 54°22' E 018°40'0 0.0
2015-Jun-16 04:33N 54°22' E 018°40'0 0.0
2015-Jun-16 03:24N 54°22' E 018°40'0 0.0
2015-Jun-16 02:32N 54°22' E 018°40'0 0.0
2015-Jun-16 01:32N 54°22' E 018°40'0 0.0
2015-Jun-16 00:32N 54°22' E 018°40'0 0.0
2015-Jun-15 23:33N 54°22' E 018°40'0 0.0
2015-Jun-15 22:33N 54°22' E 018°40'0 0.0
2015-Jun-15 21:32N 54°22' E 018°40'0 0.0
2015-Jun-15 20:32N 54°22' E 018°40'0 0.0
2015-Jun-15 19:32N 54°22' E 018°40'0 0.0
2015-Jun-15 18:32N 54°22' E 018°40'0 0.0
2015-Jun-15 17:32N 54°22' E 018°40'0 0.0
2015-Jun-15 16:32N 54°22' E 018°40'0 0.0
2015-Jun-15 15:32N 54°22' E 018°40'0 0.0
2015-Jun-15 14:32N 54°22' E 018°40'0 0.0
2015-Jun-15 13:32N 54°22' E 018°40'0 0.0
2015-Jun-15 12:32N 54°22' E 018°40'0 0.0
2015-Jun-15 11:32N 54°22' E 018°40'0 0.0
2015-Jun-15 10:32N 54°22' E 018°40'0 0.0
2015-Jun-15 09:32N 54°22' E 018°40'0 0.0
2015-Jun-15 08:32N 54°22' E 018°40'0 0.0
2015-Jun-15 07:29N 54°22' E 018°40'0 0.0
2015-Jun-15 06:29N 54°22' E 018°40'0 0.0
2015-Jun-15 05:32N 54°22' E 018°40'0 0.0
2015-Jun-15 04:32N 54°22' E 018°40'0 0.0
2015-Jun-15 03:32N 54°22' E 018°40'0 0.0
2015-Jun-15 02:32N 54°22' E 018°40'0 0.0
2015-Jun-15 01:32N 54°22' E 018°40'0 0.0
2015-Jun-15 00:32N 54°22' E 018°40'0 0.0
2015-Jun-14 23:32N 54°22' E 018°40'0 0.0
2015-Jun-14 22:29N 54°22' E 018°40'0 0.0
2015-Jun-14 21:32N 54°22' E 018°40'0 0.0
2015-Jun-14 20:32N 54°22' E 018°40'0 0.0
2015-Jun-14 19:32N 54°22' E 018°40'0 0.0
2015-Jun-14 18:32N 54°22' E 018°40'0 0.0
2015-Jun-14 17:32N 54°22' E 018°40'0 0.0
2015-Jun-14 16:32N 54°22' E 018°40'0 0.0
2015-Jun-14 15:32N 54°22' E 018°40'0 0.0
2015-Jun-14 14:32N 54°22' E 018°40'0 0.0
2015-Jun-14 13:32N 54°22' E 018°40'0 0.0
2015-Jun-14 12:32N 54°22' E 018°40'0 0.0
2015-Jun-14 11:32N 54°22' E 018°40'0 0.0
2015-Jun-14 10:32N 54°22' E 018°40'0 0.0
2015-Jun-14 09:32N 54°22' E 018°40'0 0.0
2015-Jun-14 08:26N 54°22' E 018°40'0 0.0
2015-Jun-14 07:26N 54°22' E 018°40'0 0.0
2015-Jun-14 06:32N 54°22' E 018°40'0 0.0
2015-Jun-14 05:32N 54°22' E 018°40'0 0.0
2015-Jun-14 04:31N 54°22' E 018°40'0 0.0
2015-Jun-14 03:32N 54°22' E 018°40'0 0.0
2015-Jun-14 02:25N 54°22' E 018°40'0 0.0
2015-Jun-14 01:31N 54°22' E 018°40'0 0.0
2015-Jun-14 00:28N 54°22' E 018°40'0 0.0
2015-Jun-13 23:31N 54°22' E 018°40'0 0.0
2015-Jun-13 22:31N 54°22' E 018°40'0 0.0
2015-Jun-13 21:25N 54°22' E 018°40'0 0.0
2015-Jun-13 20:31N 54°22' E 018°40'0 0.0
2015-Jun-13 19:31N 54°22' E 018°40'0 0.0
2015-Jun-13 18:31N 54°22' E 018°40'0 0.0
2015-Jun-13 17:31N 54°22' E 018°40'0 0.0
2015-Jun-13 16:22N 54°22' E 018°40'0 0.0
2015-Jun-13 15:31N 54°22' E 018°40'0 0.0
2015-Jun-13 14:31N 54°22' E 018°40'0 0.0
2015-Jun-13 13:31N 54°22' E 018°40'0 0.0
2015-Jun-13 12:31N 54°22' E 018°40'0 0.0
2015-Jun-13 11:28N 54°22' E 018°40'0 0.0
2015-Jun-13 10:31N 54°22' E 018°40'0 0.0
2015-Jun-13 09:31N 54°22' E 018°40'0 0.0
2015-Jun-13 08:31N 54°22' E 018°40'0 0.0
2015-Jun-13 07:31N 54°22' E 018°40'0 0.0
2015-Jun-13 06:31N 54°22' E 018°40'0 0.0
2015-Jun-13 05:31N 54°22' E 018°40'0 0.0
2015-Jun-13 04:25N 54°22' E 018°40'0 0.0
2015-Jun-13 03:31N 54°22' E 018°40'0 0.0
2015-Jun-13 02:31N 54°22' E 018°40'0 0.0
2015-Jun-13 01:31N 54°22' E 018°40'0 0.0
2015-Jun-13 00:31N 54°22' E 018°40'0 0.0
2015-Jun-12 23:31N 54°22' E 018°40'0 0.0
2015-Jun-12 22:31N 54°22' E 018°40'0 0.0
2015-Jun-12 21:28N 54°22' E 018°40'0 0.0
2015-Jun-12 20:31N 54°22' E 018°40'0 0.0
2015-Jun-12 19:31N 54°22' E 018°40'0 0.0
2015-Jun-12 18:31N 54°22' E 018°40'0 0.0
2015-Jun-12 17:31N 54°22' E 018°40'0 0.0
2015-Jun-12 16:31N 54°22' E 018°40'0 0.0
2015-Jun-12 15:34N 54°22' E 018°40'0 0.0
2015-Jun-12 14:34N 54°22' E 018°40'0 0.0
2015-Jun-12 13:33N 54°22' E 018°40'0 0.0
2015-Jun-12 12:33N 54°22' E 018°40'0 0.0
2015-Jun-12 11:33N 54°22' E 018°40'0 0.0
2015-Jun-12 10:33N 54°22' E 018°40'0 0.0
2015-Jun-12 09:33N 54°22' E 018°40'0 0.0
2015-Jun-12 08:33N 54°22' E 018°40'0 0.0
2015-Jun-12 07:33N 54°22' E 018°40'0 0.0
2015-Jun-12 06:33N 54°22' E 018°40'0 0.0
2015-Jun-12 05:30N 54°22' E 018°40'0 0.0
2015-Jun-12 04:33N 54°22' E 018°40'0 0.0
2015-Jun-12 03:33N 54°22' E 018°40'0 0.0
2015-Jun-12 02:33N 54°22' E 018°40'0 0.0
2015-Jun-12 01:33N 54°22' E 018°40'0 0.0
2015-Jun-12 00:33N 54°22' E 018°40'0 0.0
2015-Jun-11 23:33N 54°22' E 018°40'0 0.0
2015-Jun-11 22:33N 54°22' E 018°40'0 0.0
2015-Jun-11 21:33N 54°22' E 018°40'0 0.0
2015-Jun-11 20:33N 54°22' E 018°40'0 0.0
2015-Jun-11 19:33N 54°22' E 018°40'0 0.0
2015-Jun-11 18:33N 54°22' E 018°40'0 0.0
2015-Jun-11 17:33N 54°22' E 018°40'0 0.0
2015-Jun-11 16:33N 54°22' E 018°40'0 0.0
2015-Jun-11 15:30N 54°22' E 018°40'0 0.0
2015-Jun-11 14:33N 54°22' E 018°40'0 0.0
2015-Jun-11 13:33N 54°22' E 018°40'0 0.0
2015-Jun-11 12:33N 54°22' E 018°40'0 0.0
2015-Jun-11 11:33N 54°22' E 018°40'0 0.0
2015-Jun-11 10:33N 54°22' E 018°40'0 0.0
2015-Jun-11 09:33N 54°22' E 018°40'0 0.0
2015-Jun-11 08:33N 54°22' E 018°40'0 0.0
2015-Jun-11 07:33N 54°22' E 018°40'0 0.0
2015-Jun-11 06:33N 54°22' E 018°40'0 0.0
2015-Jun-11 05:30N 54°22' E 018°40'0 0.0
2015-Jun-11 04:33N 54°22' E 018°40'0 0.0
2015-Jun-11 03:33N 54°22' E 018°40'0 0.0
2015-Jun-11 02:33N 54°22' E 018°40'0 0.0
2015-Jun-11 01:33N 54°22' E 018°40'0 0.0
2015-Jun-11 00:33N 54°22' E 018°40'0 0.0
2015-Jun-10 23:33N 54°22' E 018°40'0 0.0
2015-Jun-10 22:33N 54°22' E 018°40'0 0.0
2015-Jun-10 21:33N 54°22' E 018°40'0 0.0
2015-Jun-10 20:33N 54°22' E 018°40'0 0.0
2015-Jun-10 19:33N 54°22' E 018°40'0 0.0
2015-Jun-10 18:33N 54°22' E 018°40'0 0.0
2015-Jun-10 17:32N 54°22' E 018°40'0 0.0
2015-Jun-10 16:32N 54°22' E 018°40'0 0.0
2015-Jun-10 15:32N 54°22' E 018°40'0 0.0
2015-Jun-10 14:32N 54°22' E 018°40'0 0.0
2015-Jun-10 13:26N 54°22' E 018°40'0 0.0
2015-Jun-10 12:32N 54°22' E 018°40'0 0.0
2015-Jun-10 11:32N 54°22' E 018°40'0 0.0
2015-Jun-10 10:32N 54°22' E 018°40'0 0.0
2015-Jun-10 09:32N 54°22' E 018°40'0 0.0
2015-Jun-10 08:32N 54°22' E 018°40'0 0.0
2015-Jun-10 07:32N 54°22' E 018°40'0 0.0
2015-Jun-10 06:32N 54°22' E 018°40'0 0.0
2015-Jun-10 05:32N 54°22' E 018°40'0 0.0
2015-Jun-10 04:32N 54°22' E 018°40'  

Dump ship's entire track history